sensor_id;sensor_type;location;lat;lon;timestamp;P1;durP1;ratioP1;P2;durP2;ratioP2
7166;SDS011;3625;51.762;14.320;2023-05-15T00:01:03;7.00;;;6.17;;
7166;SDS011;3625;51.762;14.320;2023-05-15T00:03:31;6.70;;;5.87;;
7166;SDS011;3625;51.762;14.320;2023-05-15T00:06:00;8.13;;;7.13;;
7166;SDS011;3625;51.762;14.320;2023-05-15T00:08:29;6.90;;;6.20;;
7166;SDS011;3625;51.762;14.320;2023-05-15T00:10:58;7.07;;;6.33;;
7166;SDS011;3625;51.762;14.320;2023-05-15T00:13:27;6.77;;;6.27;;
7166;SDS011;3625;51.762;14.320;2023-05-15T00:15:56;7.57;;;6.83;;
7166;SDS011;3625;51.762;14.320;2023-05-15T00:18:26;6.40;;;5.80;;
7166;SDS011;3625;51.762;14.320;2023-05-15T00:20:54;7.20;;;5.93;;
7166;SDS011;3625;51.762;14.320;2023-05-15T00:23:23;6.27;;;5.67;;
7166;SDS011;3625;51.762;14.320;2023-05-15T00:25:52;7.20;;;6.50;;
7166;SDS011;3625;51.762;14.320;2023-05-15T00:28:20;7.13;;;6.43;;
7166;SDS011;3625;51.762;14.320;2023-05-15T00:30:49;7.37;;;6.67;;
7166;SDS011;3625;51.762;14.320;2023-05-15T00:33:18;7.47;;;6.77;;
7166;SDS011;3625;51.762;14.320;2023-05-15T00:35:48;7.20;;;6.60;;
7166;SDS011;3625;51.762;14.320;2023-05-15T00:38:16;7.50;;;6.80;;
7166;SDS011;3625;51.762;14.320;2023-05-15T00:40:45;7.90;;;7.20;;
7166;SDS011;3625;51.762;14.320;2023-05-15T00:43:15;8.90;;;6.90;;
7166;SDS011;3625;51.762;14.320;2023-05-15T00:45:44;7.27;;;6.50;;
7166;SDS011;3625;51.762;14.320;2023-05-15T00:48:14;8.07;;;7.33;;
7166;SDS011;3625;51.762;14.320;2023-05-15T00:50:43;8.00;;;7.20;;
7166;SDS011;3625;51.762;14.320;2023-05-15T00:53:15;8.27;;;7.57;;
7166;SDS011;3625;51.762;14.320;2023-05-15T00:55:44;8.07;;;7.33;;
7166;SDS011;3625;51.762;14.320;2023-05-15T00:58:16;7.30;;;6.60;;
7166;SDS011;3625;51.762;14.320;2023-05-15T01:00:49;7.40;;;6.70;;
7166;SDS011;3625;51.762;14.320;2023-05-15T01:03:19;6.97;;;6.27;;
7166;SDS011;3625;51.762;14.320;2023-05-15T01:05:48;7.57;;;6.90;;
7166;SDS011;3625;51.762;14.320;2023-05-15T01:08:20;7.27;;;6.67;;
7166;SDS011;3625;51.762;14.320;2023-05-15T01:10:54;7.30;;;6.53;;
7166;SDS011;3625;51.762;14.320;2023-05-15T01:13:25;7.43;;;6.73;;
7166;SDS011;3625;51.762;14.320;2023-05-15T01:15:54;7.93;;;7.27;;
7166;SDS011;3625;51.762;14.320;2023-05-15T01:18:24;7.53;;;6.83;;
7166;SDS011;3625;51.762;14.320;2023-05-15T01:21:05;7.87;;;7.10;;
7166;SDS011;3625;51.762;14.320;2023-05-15T01:24:10;7.77;;;7.07;;
7166;SDS011;3625;51.762;14.320;2023-05-15T01:27:12;8.00;;;7.33;;
7166;SDS011;3625;51.762;14.320;2023-05-15T01:29:49;8.07;;;7.37;;
7166;SDS011;3625;51.762;14.320;2023-05-15T01:32:28;8.77;;;7.83;;
7166;SDS011;3625;51.762;14.320;2023-05-15T01:35:13;8.43;;;7.60;;
7166;SDS011;3625;51.762;14.320;2023-05-15T01:37:53;7.37;;;6.67;;
7166;SDS011;3625;51.762;14.320;2023-05-15T01:40:39;8.27;;;7.57;;
7166;SDS011;3625;51.762;14.320;2023-05-15T01:43:14;9.77;;;7.27;;
7166;SDS011;3625;51.762;14.320;2023-05-15T01:45:50;9.83;;;7.97;;
7166;SDS011;3625;51.762;14.320;2023-05-15T01:48:21;8.30;;;7.50;;
7166;SDS011;3625;51.762;14.320;2023-05-15T01:50:54;9.30;;;8.47;;
7166;SDS011;3625;51.762;14.320;2023-05-15T01:53:29;8.57;;;7.77;;
7166;SDS011;3625;51.762;14.320;2023-05-15T01:56:01;8.83;;;7.97;;
7166;SDS011;3625;51.762;14.320;2023-05-15T01:58:37;9.53;;;8.63;;
7166;SDS011;3625;51.762;14.320;2023-05-15T02:01:07;9.17;;;8.33;;
7166;SDS011;3625;51.762;14.320;2023-05-15T02:03:37;9.33;;;8.43;;
7166;SDS011;3625;51.762;14.320;2023-05-15T02:06:08;8.43;;;7.70;;
7166;SDS011;3625;51.762;14.320;2023-05-15T02:08:37;7.97;;;7.23;;
7166;SDS011;3625;51.762;14.320;2023-05-15T02:11:09;8.33;;;7.50;;
7166;SDS011;3625;51.762;14.320;2023-05-15T02:13:41;8.27;;;7.40;;
7166;SDS011;3625;51.762;14.320;2023-05-15T02:16:10;8.10;;;7.40;;
7166;SDS011;3625;51.762;14.320;2023-05-15T02:18:39;8.03;;;7.33;;
7166;SDS011;3625;51.762;14.320;2023-05-15T02:21:08;7.77;;;7.07;;
7166;SDS011;3625;51.762;14.320;2023-05-15T02:23:37;7.70;;;6.87;;
7166;SDS011;3625;51.762;14.320;2023-05-15T02:26:09;6.93;;;6.40;;
7166;SDS011;3625;51.762;14.320;2023-05-15T02:28:57;6.57;;;6.00;;
7166;SDS011;3625;51.762;14.320;2023-05-15T02:31:38;8.23;;;6.67;;
7166;SDS011;3625;51.762;14.320;2023-05-15T02:34:22;6.83;;;6.23;;
7166;SDS011;3625;51.762;14.320;2023-05-15T02:37:01;6.30;;;5.70;;
7166;SDS011;3625;51.762;14.320;2023-05-15T02:39:34;6.53;;;5.90;;
7166;SDS011;3625;51.762;14.320;2023-05-15T02:42:04;6.90;;;6.17;;
7166;SDS011;3625;51.762;14.320;2023-05-15T02:44:38;6.70;;;6.20;;
7166;SDS011;3625;51.762;14.320;2023-05-15T02:47:10;7.00;;;6.40;;
7166;SDS011;3625;51.762;14.320;2023-05-15T02:49:43;7.73;;;6.43;;
7166;SDS011;3625;51.762;14.320;2023-05-15T02:52:12;7.37;;;6.77;;
7166;SDS011;3625;51.762;14.320;2023-05-15T02:54:41;7.33;;;6.63;;
7166;SDS011;3625;51.762;14.320;2023-05-15T02:57:10;7.40;;;6.67;;
7166;SDS011;3625;51.762;14.320;2023-05-15T02:59:40;8.00;;;7.20;;
7166;SDS011;3625;51.762;14.320;2023-05-15T03:02:09;7.60;;;7.00;;
7166;SDS011;3625;51.762;14.320;2023-05-15T03:04:37;7.63;;;6.93;;
7166;SDS011;3625;51.762;14.320;2023-05-15T03:07:06;7.53;;;6.80;;
7166;SDS011;3625;51.762;14.320;2023-05-15T03:09:34;8.33;;;6.43;;
7166;SDS011;3625;51.762;14.320;2023-05-15T03:12:03;6.43;;;5.83;;
7166;SDS011;3625;51.762;14.320;2023-05-15T03:14:33;7.30;;;6.53;;
7166;SDS011;3625;51.762;14.320;2023-05-15T03:17:07;7.13;;;6.53;;
7166;SDS011;3625;51.762;14.320;2023-05-15T03:19:35;7.23;;;6.53;;
7166;SDS011;3625;51.762;14.320;2023-05-15T03:22:04;7.97;;;7.17;;
7166;SDS011;3625;51.762;14.320;2023-05-15T03:24:32;7.97;;;7.27;;
7166;SDS011;3625;51.762;14.320;2023-05-15T03:27:01;8.30;;;7.50;;
7166;SDS011;3625;51.762;14.320;2023-05-15T03:29:30;7.03;;;6.43;;
7166;SDS011;3625;51.762;14.320;2023-05-15T03:31:58;7.40;;;6.73;;
7166;SDS011;3625;51.762;14.320;2023-05-15T03:34:28;8.50;;;7.60;;
7166;SDS011;3625;51.762;14.320;2023-05-15T03:36:57;8.83;;;8.03;;
7166;SDS011;3625;51.762;14.320;2023-05-15T03:39:26;8.20;;;7.50;;
7166;SDS011;3625;51.762;14.320;2023-05-15T03:41:54;7.07;;;6.38;;
7166;SDS011;3625;51.762;14.320;2023-05-15T03:44:23;7.37;;;6.70;;
7166;SDS011;3625;51.762;14.320;2023-05-15T03:46:51;8.27;;;7.57;;
7166;SDS011;3625;51.762;14.320;2023-05-15T03:49:20;7.97;;;7.27;;
7166;SDS011;3625;51.762;14.320;2023-05-15T03:51:50;7.13;;;6.53;;
7166;SDS011;3625;51.762;14.320;2023-05-15T03:54:19;7.53;;;6.93;;
7166;SDS011;3625;51.762;14.320;2023-05-15T03:56:51;7.77;;;7.10;;
7166;SDS011;3625;51.762;14.320;2023-05-15T03:59:19;8.33;;;7.53;;
7166;SDS011;3625;51.762;14.320;2023-05-15T04:01:48;8.00;;;7.30;;
7166;SDS011;3625;51.762;14.320;2023-05-15T04:04:29;7.90;;;7.20;;
7166;SDS011;3625;51.762;14.320;2023-05-15T04:07:00;7.93;;;7.20;;
7166;SDS011;3625;51.762;14.320;2023-05-15T04:09:29;8.03;;;7.33;;
7166;SDS011;3625;51.762;14.320;2023-05-15T04:11:57;7.90;;;7.10;;
7166;SDS011;3625;51.762;14.320;2023-05-15T04:14:26;7.80;;;6.60;;
7166;SDS011;3625;51.762;14.320;2023-05-15T04:16:54;8.33;;;7.60;;
7166;SDS011;3625;51.762;14.320;2023-05-15T04:19:25;9.23;;;7.57;;
7166;SDS011;3625;51.762;14.320;2023-05-15T04:21:56;7.80;;;7.17;;
7166;SDS011;3625;51.762;14.320;2023-05-15T04:24:26;8.33;;;7.53;;
7166;SDS011;3625;51.762;14.320;2023-05-15T04:26:54;7.90;;;7.20;;
7166;SDS011;3625;51.762;14.320;2023-05-15T04:29:23;7.72;;;7.00;;
7166;SDS011;3625;51.762;14.320;2023-05-15T04:31:51;7.70;;;7.00;;
7166;SDS011;3625;51.762;14.320;2023-05-15T04:34:20;8.27;;;7.47;;
7166;SDS011;3625;51.762;14.320;2023-05-15T04:36:48;8.73;;;7.90;;
7166;SDS011;3625;51.762;14.320;2023-05-15T04:39:17;8.90;;;8.10;;
7166;SDS011;3625;51.762;14.320;2023-05-15T04:41:47;8.90;;;8.10;;
7166;SDS011;3625;51.762;14.320;2023-05-15T04:44:16;7.85;;;7.15;;
7166;SDS011;3625;51.762;14.320;2023-05-15T04:46:44;7.80;;;7.20;;
7166;SDS011;3625;51.762;14.320;2023-05-15T04:49:13;8.13;;;7.40;;
7166;SDS011;3625;51.762;14.320;2023-05-15T04:51:41;8.90;;;8.10;;
7166;SDS011;3625;51.762;14.320;2023-05-15T04:54:10;8.20;;;7.50;;
7166;SDS011;3625;51.762;14.320;2023-05-15T04:56:38;8.37;;;7.67;;
7166;SDS011;3625;51.762;14.320;2023-05-15T04:59:08;9.23;;;8.43;;
7166;SDS011;3625;51.762;14.320;2023-05-15T05:01:37;8.43;;;7.73;;
7166;SDS011;3625;51.762;14.320;2023-05-15T05:04:06;9.10;;;8.30;;
7166;SDS011;3625;51.762;14.320;2023-05-15T05:06:34;8.33;;;7.63;;
7166;SDS011;3625;51.762;14.320;2023-05-15T05:09:03;7.90;;;7.30;;
7166;SDS011;3625;51.762;14.320;2023-05-15T05:11:34;8.32;;;7.63;;
7166;SDS011;3625;51.762;14.320;2023-05-15T05:14:04;8.97;;;8.17;;
7166;SDS011;3625;51.762;14.320;2023-05-15T05:16:35;8.47;;;7.77;;
7166;SDS011;3625;51.762;14.320;2023-05-15T05:19:04;8.43;;;7.30;;
7166;SDS011;3625;51.762;14.320;2023-05-15T05:21:33;7.70;;;7.00;;
7166;SDS011;3625;51.762;14.320;2023-05-15T05:24:01;8.90;;;8.10;;
7166;SDS011;3625;51.762;14.320;2023-05-15T05:26:30;9.07;;;8.17;;
7166;SDS011;3625;51.762;14.320;2023-05-15T05:28:59;8.50;;;7.70;;
7166;SDS011;3625;51.762;14.320;2023-05-15T05:31:27;9.07;;;8.27;;
7166;SDS011;3625;51.762;14.320;2023-05-15T05:33:57;8.90;;;8.10;;
7166;SDS011;3625;51.762;14.320;2023-05-15T05:36:25;9.97;;;8.97;;
7166;SDS011;3625;51.762;14.320;2023-05-15T05:38:54;8.80;;;8.03;;
7166;SDS011;3625;51.762;14.320;2023-05-15T05:41:24;9.57;;;8.73;;
7166;SDS011;3625;51.762;14.320;2023-05-15T05:43:53;9.63;;;8.75;;
7166;SDS011;3625;51.762;14.320;2023-05-15T05:46:30;9.87;;;8.97;;
7166;SDS011;3625;51.762;14.320;2023-05-15T05:49:05;9.73;;;8.83;;
7166;SDS011;3625;51.762;14.320;2023-05-15T05:51:35;10.47;;;9.40;;
7166;SDS011;3625;51.762;14.320;2023-05-15T05:54:04;7.57;;;6.97;;
7166;SDS011;3625;51.762;14.320;2023-05-15T05:56:44;8.77;;;7.97;;
7166;SDS011;3625;51.762;14.320;2023-05-15T05:59:13;9.23;;;8.43;;
7166;SDS011;3625;51.762;14.320;2023-05-15T06:01:41;9.18;;;8.23;;
7166;SDS011;3625;51.762;14.320;2023-05-15T06:04:12;11.37;;;8.73;;
7166;SDS011;3625;51.762;14.320;2023-05-15T06:06:43;8.60;;;7.80;;
7166;SDS011;3625;51.762;14.320;2023-05-15T06:09:12;9.52;;;8.45;;
7166;SDS011;3625;51.762;14.320;2023-05-15T06:11:40;9.57;;;8.68;;
7166;SDS011;3625;51.762;14.320;2023-05-15T06:14:09;11.10;;;9.25;;
7166;SDS011;3625;51.762;14.320;2023-05-15T06:16:37;10.23;;;9.33;;
7166;SDS011;3625;51.762;14.320;2023-05-15T06:19:06;10.18;;;9.18;;
7166;SDS011;3625;51.762;14.320;2023-05-15T06:21:36;10.20;;;9.30;;
7166;SDS011;3625;51.762;14.320;2023-05-15T06:24:05;9.57;;;8.65;;
7166;SDS011;3625;51.762;14.320;2023-05-15T06:26:33;9.70;;;8.77;;
7166;SDS011;3625;51.762;14.320;2023-05-15T06:29:02;9.63;;;8.73;;
7166;SDS011;3625;51.762;14.320;2023-05-15T06:31:31;9.67;;;8.80;;
7166;SDS011;3625;51.762;14.320;2023-05-15T06:33:59;10.23;;;9.07;;
7166;SDS011;3625;51.762;14.320;2023-05-15T06:36:28;9.30;;;8.40;;
7166;SDS011;3625;51.762;14.320;2023-05-15T06:38:58;8.82;;;7.93;;
7166;SDS011;3625;51.762;14.320;2023-05-15T06:41:26;9.70;;;8.80;;
7166;SDS011;3625;51.762;14.320;2023-05-15T06:43:55;9.77;;;8.37;;
7166;SDS011;3625;51.762;14.320;2023-05-15T06:46:24;8.77;;;7.97;;
7166;SDS011;3625;51.762;14.320;2023-05-15T06:48:53;8.00;;;7.30;;
7166;SDS011;3625;51.762;14.320;2023-05-15T06:51:22;10.43;;;8.30;;
7166;SDS011;3625;51.762;14.320;2023-05-15T06:53:53;9.07;;;8.27;;
7166;SDS011;3625;51.762;14.320;2023-05-15T06:56:24;10.55;;;7.90;;
7166;SDS011;3625;51.762;14.320;2023-05-15T06:58:55;9.57;;;8.65;;
7166;SDS011;3625;51.762;14.320;2023-05-15T07:01:24;10.15;;;9.15;;
7166;SDS011;3625;51.762;14.320;2023-05-15T07:03:59;9.15;;;8.25;;
7166;SDS011;3625;51.762;14.320;2023-05-15T07:06:27;11.52;;;9.30;;
7166;SDS011;3625;51.762;14.320;2023-05-15T07:08:57;8.35;;;7.55;;
7166;SDS011;3625;51.762;14.320;2023-05-15T07:11:30;8.77;;;7.97;;
7166;SDS011;3625;51.762;14.320;2023-05-15T07:14:02;8.55;;;7.78;;
7166;SDS011;3625;51.762;14.320;2023-05-15T07:16:32;8.80;;;7.97;;
7166;SDS011;3625;51.762;14.320;2023-05-15T07:19:01;8.63;;;7.88;;
7166;SDS011;3625;51.762;14.320;2023-05-15T07:21:30;9.18;;;8.38;;
7166;SDS011;3625;51.762;14.320;2023-05-15T07:23:58;9.43;;;8.50;;
7166;SDS011;3625;51.762;14.320;2023-05-15T07:26:29;10.00;;;8.38;;
7166;SDS011;3625;51.762;14.320;2023-05-15T07:29:12;9.70;;;8.88;;
7166;SDS011;3625;51.762;14.320;2023-05-15T07:31:40;9.13;;;8.32;;
7166;SDS011;3625;51.762;14.320;2023-05-15T07:34:10;8.50;;;7.80;;
7166;SDS011;3625;51.762;14.320;2023-05-15T07:36:38;8.98;;;8.07;;
7166;SDS011;3625;51.762;14.320;2023-05-15T07:39:07;9.45;;;8.55;;
7166;SDS011;3625;51.762;14.320;2023-05-15T07:41:37;8.77;;;8.07;;
7166;SDS011;3625;51.762;14.320;2023-05-15T07:44:08;8.63;;;7.82;;
7166;SDS011;3625;51.762;14.320;2023-05-15T07:46:38;8.57;;;7.85;;
7166;SDS011;3625;51.762;14.320;2023-05-15T07:49:07;10.38;;;9.48;;
7166;SDS011;3625;51.762;14.320;2023-05-15T07:51:35;8.40;;;7.70;;
7166;SDS011;3625;51.762;14.320;2023-05-15T07:54:04;8.82;;;8.02;;
7166;SDS011;3625;51.762;14.320;2023-05-15T07:56:32;8.85;;;8.05;;
7166;SDS011;3625;51.762;14.320;2023-05-15T07:59:04;9.77;;;8.07;;
7166;SDS011;3625;51.762;14.320;2023-05-15T08:01:33;8.90;;;8.10;;
7166;SDS011;3625;51.762;14.320;2023-05-15T08:04:10;8.15;;;7.32;;
7166;SDS011;3625;51.762;14.320;2023-05-15T08:06:39;9.35;;;8.55;;
7166;SDS011;3625;51.762;14.320;2023-05-15T08:09:09;8.82;;;8.02;;
7166;SDS011;3625;51.762;14.320;2023-05-15T08:11:38;9.52;;;8.60;;
7166;SDS011;3625;51.762;14.320;2023-05-15T08:14:10;8.68;;;7.97;;
7166;SDS011;3625;51.762;14.320;2023-05-15T08:16:47;9.25;;;8.35;;
7166;SDS011;3625;51.762;14.320;2023-05-15T08:19:16;9.18;;;8.00;;
7166;SDS011;3625;51.762;14.320;2023-05-15T08:21:49;8.25;;;7.55;;
7166;SDS011;3625;51.762;14.320;2023-05-15T08:24:18;7.70;;;7.00;;
7166;SDS011;3625;51.762;14.320;2023-05-15T08:26:51;8.45;;;7.65;;
7166;SDS011;3625;51.762;14.320;2023-05-15T08:29:21;10.63;;;9.57;;
7166;SDS011;3625;51.762;14.320;2023-05-15T08:31:51;8.88;;;8.05;;
7166;SDS011;3625;51.762;14.320;2023-05-15T08:34:20;8.88;;;7.97;;
7166;SDS011;3625;51.762;14.320;2023-05-15T08:36:48;9.52;;;8.60;;
7166;SDS011;3625;51.762;14.320;2023-05-15T08:39:17;10.30;;;7.85;;
7166;SDS011;3625;51.762;14.320;2023-05-15T08:41:51;8.23;;;7.53;;
7166;SDS011;3625;51.762;14.320;2023-05-15T08:44:26;9.10;;;8.30;;
7166;SDS011;3625;51.762;14.320;2023-05-15T08:46:56;9.05;;;8.25;;
7166;SDS011;3625;51.762;14.320;2023-05-15T08:49:32;9.20;;;8.30;;
7166;SDS011;3625;51.762;14.320;2023-05-15T08:52:11;11.70;;;8.85;;
7166;SDS011;3625;51.762;14.320;2023-05-15T08:54:43;8.45;;;7.57;;
7166;SDS011;3625;51.762;14.320;2023-05-15T08:57:14;8.43;;;7.72;;
7166;SDS011;3625;51.762;14.320;2023-05-15T08:59:47;9.02;;;8.20;;
7166;SDS011;3625;51.762;14.320;2023-05-15T09:02:19;9.93;;;8.07;;
7166;SDS011;3625;51.762;14.320;2023-05-15T09:04:48;8.25;;;7.45;;
7166;SDS011;3625;51.762;14.320;2023-05-15T09:07:17;8.60;;;7.90;;
7166;SDS011;3625;51.762;14.320;2023-05-15T09:09:55;9.20;;;8.40;;
7166;SDS011;3625;51.762;14.320;2023-05-15T09:12:28;8.73;;;7.97;;
7166;SDS011;3625;51.762;14.320;2023-05-15T09:15:11;7.85;;;7.18;;
7166;SDS011;3625;51.762;14.320;2023-05-15T09:17:43;8.93;;;8.02;;
7166;SDS011;3625;51.762;14.320;2023-05-15T09:20:23;9.10;;;8.30;;
7166;SDS011;3625;51.762;14.320;2023-05-15T09:22:56;8.75;;;7.93;;
7166;SDS011;3625;51.762;14.320;2023-05-15T09:25:33;9.30;;;8.32;;
7166;SDS011;3625;51.762;14.320;2023-05-15T09:28:06;8.93;;;8.02;;
7166;SDS011;3625;51.762;14.320;2023-05-15T09:30:38;8.00;;;7.30;;
7166;SDS011;3625;51.762;14.320;2023-05-15T09:33:09;8.82;;;8.02;;
7166;SDS011;3625;51.762;14.320;2023-05-15T09:35:38;8.70;;;7.90;;
7166;SDS011;3625;51.762;14.320;2023-05-15T09:38:07;9.00;;;8.05;;
7166;SDS011;3625;51.762;14.320;2023-05-15T09:40:39;9.50;;;8.60;;
7166;SDS011;3625;51.762;14.320;2023-05-15T09:43:12;9.98;;;8.95;;
7166;SDS011;3625;51.762;14.320;2023-05-15T09:45:43;9.77;;;8.13;;
7166;SDS011;3625;51.762;14.320;2023-05-15T09:48:14;9.63;;;7.93;;
7166;SDS011;3625;51.762;14.320;2023-05-15T09:50:44;8.57;;;7.72;;
7166;SDS011;3625;51.762;14.320;2023-05-15T09:53:16;7.78;;;7.10;;
7166;SDS011;3625;51.762;14.320;2023-05-15T09:55:47;8.13;;;7.43;;
7166;SDS011;3625;51.762;14.320;2023-05-15T09:58:17;8.60;;;7.80;;
7166;SDS011;3625;51.762;14.320;2023-05-15T10:00:47;8.40;;;7.70;;
7166;SDS011;3625;51.762;14.320;2023-05-15T10:03:18;8.05;;;7.35;;
7166;SDS011;3625;51.762;14.320;2023-05-15T10:05:47;8.13;;;7.32;;
7166;SDS011;3625;51.762;14.320;2023-05-15T10:08:24;8.77;;;7.90;;
7166;SDS011;3625;51.762;14.320;2023-05-15T10:10:54;8.63;;;7.82;;
7166;SDS011;3625;51.762;14.320;2023-05-15T10:13:27;7.85;;;7.15;;
7166;SDS011;3625;51.762;14.320;2023-05-15T10:16:04;8.20;;;7.50;;
7166;SDS011;3625;51.762;14.320;2023-05-15T10:18:33;8.18;;;7.47;;
7166;SDS011;3625;51.762;14.320;2023-05-15T10:21:07;8.45;;;7.75;;
7166;SDS011;3625;51.762;14.320;2023-05-15T10:23:36;8.07;;;7.30;;
7166;SDS011;3625;51.762;14.320;2023-05-15T10:26:10;8.60;;;7.72;;
7166;SDS011;3625;51.762;14.320;2023-05-15T10:28:49;9.02;;;8.05;;
7166;SDS011;3625;51.762;14.320;2023-05-15T10:31:28;8.00;;;7.30;;
7166;SDS011;3625;51.762;14.320;2023-05-15T10:33:58;8.10;;;7.35;;
7166;SDS011;3625;51.762;14.320;2023-05-15T10:36:28;7.38;;;6.78;;
7166;SDS011;3625;51.762;14.320;2023-05-15T10:38:58;8.60;;;7.90;;
7166;SDS011;3625;51.762;14.320;2023-05-15T10:41:29;8.60;;;7.82;;
7166;SDS011;3625;51.762;14.320;2023-05-15T10:44:09;9.52;;;8.63;;
7166;SDS011;3625;51.762;14.320;2023-05-15T10:46:41;9.27;;;8.45;;
7166;SDS011;3625;51.762;14.320;2023-05-15T10:49:13;9.48;;;8.57;;
7166;SDS011;3625;51.762;14.320;2023-05-15T10:51:41;8.60;;;7.85;;
7166;SDS011;3625;51.762;14.320;2023-05-15T10:54:20;8.25;;;7.45;;
7166;SDS011;3625;51.762;14.320;2023-05-15T10:56:49;8.45;;;7.55;;
7166;SDS011;3625;51.762;14.320;2023-05-15T10:59:17;8.75;;;8.05;;
7166;SDS011;3625;51.762;14.320;2023-05-15T11:01:47;8.30;;;7.60;;
7166;SDS011;3625;51.762;14.320;2023-05-15T11:04:17;8.07;;;7.28;;
7166;SDS011;3625;51.762;14.320;2023-05-15T11:06:52;8.48;;;7.68;;
7166;SDS011;3625;51.762;14.320;2023-05-15T11:09:39;7.75;;;7.05;;
7166;SDS011;3625;51.762;14.320;2023-05-15T11:12:08;8.18;;;7.47;;
7166;SDS011;3625;51.762;14.320;2023-05-15T11:14:40;7.55;;;6.85;;
7166;SDS011;3625;51.762;14.320;2023-05-15T11:17:32;7.00;;;6.40;;
7166;SDS011;3625;51.762;14.320;2023-05-15T11:20:00;12.13;;;10.18;;
7166;SDS011;3625;51.762;14.320;2023-05-15T11:22:30;6.85;;;6.25;;
7166;SDS011;3625;51.762;14.320;2023-05-15T11:25:02;6.70;;;5.88;;
7166;SDS011;3625;51.762;14.320;2023-05-15T11:27:37;7.60;;;6.70;;
7166;SDS011;3625;51.762;14.320;2023-05-15T11:30:09;7.45;;;6.43;;
7166;SDS011;3625;51.762;14.320;2023-05-15T11:32:50;7.35;;;6.65;;
7166;SDS011;3625;51.762;14.320;2023-05-15T11:35:25;7.20;;;6.60;;
7166;SDS011;3625;51.762;14.320;2023-05-15T11:37:58;7.80;;;7.10;;
7166;SDS011;3625;51.762;14.320;2023-05-15T11:40:31;8.73;;;7.82;;
7166;SDS011;3625;51.762;14.320;2023-05-15T11:43:16;9.98;;;8.27;;
7166;SDS011;3625;51.762;14.320;2023-05-15T11:45:51;7.78;;;6.90;;
7166;SDS011;3625;51.762;14.320;2023-05-15T11:48:24;7.53;;;6.93;;
7166;SDS011;3625;51.762;14.320;2023-05-15T11:51:00;8.88;;;7.97;;
7166;SDS011;3625;51.762;14.320;2023-05-15T11:53:32;7.05;;;6.35;;
7166;SDS011;3625;51.762;14.320;2023-05-15T11:56:02;6.35;;;5.85;;
7166;SDS011;3625;51.762;14.320;2023-05-15T11:58:34;6.35;;;5.60;;
7166;SDS011;3625;51.762;14.320;2023-05-15T12:01:02;6.00;;;5.50;;
7166;SDS011;3625;51.762;14.320;2023-05-15T12:03:36;6.28;;;5.78;;
7166;SDS011;3625;51.762;14.320;2023-05-15T12:06:05;6.68;;;6.00;;
7166;SDS011;3625;51.762;14.320;2023-05-15T12:08:35;7.28;;;6.57;;
7166;SDS011;3625;51.762;14.320;2023-05-15T12:11:04;7.47;;;5.88;;
7166;SDS011;3625;51.762;14.320;2023-05-15T12:13:43;6.80;;;6.20;;
7166;SDS011;3625;51.762;14.320;2023-05-15T12:16:12;7.40;;;6.72;;
7166;SDS011;3625;51.762;14.320;2023-05-15T12:18:48;7.22;;;6.10;;
7166;SDS011;3625;51.762;14.320;2023-05-15T12:21:17;6.28;;;5.72;;
7166;SDS011;3625;51.762;14.320;2023-05-15T12:23:49;6.78;;;6.03;;
7166;SDS011;3625;51.762;14.320;2023-05-15T12:26:40;6.65;;;6.05;;
7166;SDS011;3625;51.762;14.320;2023-05-15T12:29:11;5.82;;;5.32;;
7166;SDS011;3625;51.762;14.320;2023-05-15T12:31:41;7.32;;;5.82;;
7166;SDS011;3625;51.762;14.320;2023-05-15T12:34:11;6.05;;;5.50;;
7166;SDS011;3625;51.762;14.320;2023-05-15T12:36:41;5.85;;;5.35;;
7166;SDS011;3625;51.762;14.320;2023-05-15T12:39:11;6.97;;;6.38;;
7166;SDS011;3625;51.762;14.320;2023-05-15T12:41:40;6.60;;;6.10;;
7166;SDS011;3625;51.762;14.320;2023-05-15T12:44:14;5.72;;;5.22;;
7166;SDS011;3625;51.762;14.320;2023-05-15T12:46:44;6.95;;;6.25;;
7166;SDS011;3625;51.762;14.320;2023-05-15T12:49:16;7.90;;;6.55;;
7166;SDS011;3625;51.762;14.320;2023-05-15T12:51:50;6.60;;;6.00;;
7166;SDS011;3625;51.762;14.320;2023-05-15T12:54:22;6.82;;;6.22;;
7166;SDS011;3625;51.762;14.320;2023-05-15T12:56:51;7.32;;;6.05;;
7166;SDS011;3625;51.762;14.320;2023-05-15T12:59:25;7.18;;;6.50;;
7166;SDS011;3625;51.762;14.320;2023-05-15T13:01:54;6.63;;;6.10;;
7166;SDS011;3625;51.762;14.320;2023-05-15T13:04:25;6.63;;;5.93;;
7166;SDS011;3625;51.762;14.320;2023-05-15T13:06:54;7.00;;;6.40;;
7166;SDS011;3625;51.762;14.320;2023-05-15T13:09:23;6.72;;;6.05;;
7166;SDS011;3625;51.762;14.320;2023-05-15T13:11:53;7.63;;;6.82;;
7166;SDS011;3625;51.762;14.320;2023-05-15T13:14:23;6.95;;;6.40;;
7166;SDS011;3625;51.762;14.320;2023-05-15T13:17:00;6.57;;;5.95;;
7166;SDS011;3625;51.762;14.320;2023-05-15T13:19:32;8.13;;;6.40;;
7166;SDS011;3625;51.762;14.320;2023-05-15T13:22:01;6.40;;;5.90;;
7166;SDS011;3625;51.762;14.320;2023-05-15T13:24:31;7.28;;;6.57;;
7166;SDS011;3625;51.762;14.320;2023-05-15T13:27:00;7.50;;;6.80;;
7166;SDS011;3625;51.762;14.320;2023-05-15T13:29:32;7.10;;;6.40;;
7166;SDS011;3625;51.762;14.320;2023-05-15T13:32:00;7.50;;;6.82;;
7166;SDS011;3625;51.762;14.320;2023-05-15T13:34:29;8.15;;;6.43;;
7166;SDS011;3625;51.762;14.320;2023-05-15T13:36:59;7.07;;;6.43;;
7166;SDS011;3625;51.762;14.320;2023-05-15T13:39:27;6.72;;;6.13;;
7166;SDS011;3625;51.762;14.320;2023-05-15T13:41:56;6.18;;;5.68;;
7166;SDS011;3625;51.762;14.320;2023-05-15T13:44:25;7.55;;;6.65;;
7166;SDS011;3625;51.762;14.320;2023-05-15T13:46:53;5.93;;;5.43;;
7166;SDS011;3625;51.762;14.320;2023-05-15T13:49:22;6.63;;;6.03;;
7166;SDS011;3625;51.762;14.320;2023-05-15T13:51:53;6.82;;;6.10;;
7166;SDS011;3625;51.762;14.320;2023-05-15T13:54:22;6.93;;;5.70;;
7166;SDS011;3625;51.762;14.320;2023-05-15T13:56:52;5.97;;;5.38;;
7166;SDS011;3625;51.762;14.320;2023-05-15T13:59:21;6.05;;;5.55;;
7166;SDS011;3625;51.762;14.320;2023-05-15T14:01:51;8.23;;;6.57;;
7166;SDS011;3625;51.762;14.320;2023-05-15T14:04:21;7.47;;;6.15;;
7166;SDS011;3625;51.762;14.320;2023-05-15T14:06:53;9.73;;;6.43;;
7166;SDS011;3625;51.762;14.320;2023-05-15T14:09:26;8.00;;;6.78;;
7166;SDS011;3625;51.762;14.320;2023-05-15T14:11:54;6.80;;;6.20;;
7166;SDS011;3625;51.762;14.320;2023-05-15T14:14:23;6.43;;;5.82;;
7166;SDS011;3625;51.762;14.320;2023-05-15T14:16:51;6.15;;;5.55;;
7166;SDS011;3625;51.762;14.320;2023-05-15T14:19:20;6.78;;;5.60;;
7166;SDS011;3625;51.762;14.320;2023-05-15T14:21:49;5.32;;;4.80;;
7166;SDS011;3625;51.762;14.320;2023-05-15T14:24:18;5.20;;;4.38;;
7166;SDS011;3625;51.762;14.320;2023-05-15T14:26:47;4.70;;;4.30;;
7166;SDS011;3625;51.762;14.320;2023-05-15T14:29:15;6.00;;;5.40;;
7166;SDS011;3625;51.762;14.320;2023-05-15T14:31:44;5.03;;;4.50;;
7166;SDS011;3625;51.762;14.320;2023-05-15T14:34:13;4.95;;;3.92;;
7166;SDS011;3625;51.762;14.320;2023-05-15T14:36:41;4.53;;;4.10;;
7166;SDS011;3625;51.762;14.320;2023-05-15T14:39:12;3.92;;;3.60;;
7166;SDS011;3625;51.762;14.320;2023-05-15T14:41:43;4.53;;;4.13;;
7166;SDS011;3625;51.762;14.320;2023-05-15T14:44:12;4.65;;;4.07;;
7166;SDS011;3625;51.762;14.320;2023-05-15T14:46:41;5.47;;;3.92;;
7166;SDS011;3625;51.762;14.320;2023-05-15T14:49:12;4.20;;;3.80;;
7166;SDS011;3625;51.762;14.320;2023-05-15T14:51:40;4.97;;;3.78;;
7166;SDS011;3625;51.762;14.320;2023-05-15T14:54:09;7.03;;;3.83;;
7166;SDS011;3625;51.762;14.320;2023-05-15T14:56:40;3.60;;;3.30;;
7166;SDS011;3625;51.762;14.320;2023-05-15T14:59:09;5.25;;;3.80;;
7166;SDS011;3625;51.762;14.320;2023-05-15T15:01:39;4.47;;;4.05;;
7166;SDS011;3625;51.762;14.320;2023-05-15T15:04:08;4.05;;;3.65;;
7166;SDS011;3625;51.762;14.320;2023-05-15T15:06:36;4.20;;;3.90;;
7166;SDS011;3625;51.762;14.320;2023-05-15T15:09:06;5.05;;;4.05;;
7166;SDS011;3625;51.762;14.320;2023-05-15T15:11:38;4.47;;;4.10;;
7166;SDS011;3625;51.762;14.320;2023-05-15T15:14:07;4.22;;;3.60;;
7166;SDS011;3625;51.762;14.320;2023-05-15T15:16:38;4.47;;;3.80;;
7166;SDS011;3625;51.762;14.320;2023-05-15T15:19:07;4.10;;;3.40;;
7166;SDS011;3625;51.762;14.320;2023-05-15T15:21:38;15.43;;;3.63;;
7166;SDS011;3625;51.762;14.320;2023-05-15T15:24:06;3.58;;;3.28;;